createdAt,value
2017-06-13T00:01:38.905Z,17.26
2017-06-13T00:02:53.545Z,17.36
2017-06-13T00:03:53.569Z,17.28
2017-06-13T00:04:53.594Z,17.26
2017-06-13T00:05:38.697Z,17.31
2017-06-13T00:06:53.644Z,17.3
2017-06-13T00:07:39.056Z,17.4
2017-06-13T00:08:39.074Z,17.31
2017-06-13T00:09:39.098Z,17.31
2017-06-13T00:10:39.125Z,17.25
2017-06-13T00:11:39.147Z,17.37
2017-06-13T00:12:39.173Z,17.25
2017-06-13T00:13:39.198Z,17.31
2017-06-13T00:15:39.247Z,17.26
2017-06-13T00:16:39.270Z,17.26
2017-06-13T00:17:39.296Z,17.28
2017-06-13T00:18:39.324Z,17.25
2017-06-13T00:19:39.347Z,17.23
2017-06-13T00:20:39.371Z,17.18
2017-06-13T00:21:39.394Z,17.19
2017-06-13T00:22:54.043Z,17.15
2017-06-13T00:23:39.447Z,17.21
2017-06-13T00:24:39.471Z,17.19
2017-06-13T00:25:39.496Z,17.25
2017-06-13T00:26:39.517Z,17.22
2017-06-13T00:27:39.542Z,17.21
2017-06-13T00:28:39.566Z,17.12
2017-06-13T00:29:39.593Z,17.18
2017-06-13T00:30:39.618Z,17.04
2017-06-13T00:31:39.641Z,17.14
2017-06-13T00:34:39.715Z,17.01
2017-06-13T00:35:54.358Z,17.08
2017-06-13T00:36:39.764Z,17.01
2017-06-13T00:37:39.789Z,17.01
2017-06-13T00:38:54.431Z,16.98
2017-06-13T00:39:39.543Z,17.07
2017-06-13T00:40:39.863Z,17.08
2017-06-13T00:41:39.889Z,17.11
2017-06-13T00:42:39.913Z,17.04
2017-06-13T00:43:39.937Z,17.12
2017-06-13T00:44:39.960Z,17.11
2017-06-13T00:45:39.983Z,17.01
2017-06-13T00:46:40.010Z,17.18
2017-06-13T00:47:40.034Z,17.04
2017-06-13T00:48:40.108Z,17.12
2017-06-13T00:50:40.108Z,17.16
2017-06-13T00:51:54.751Z,17.08
2017-06-13T00:52:40.158Z,17.15
2017-06-13T00:53:54.799Z,17.11
2017-06-13T00:54:40.207Z,17.15
2017-06-13T00:55:40.230Z,17.21
2017-06-13T00:56:40.257Z,17.23
2017-06-13T00:57:39.976Z,17.16
2017-06-13T00:58:40.306Z,17.12
2017-06-13T00:59:39.723Z,17.11
2017-06-13T01:00:40.051Z,17.11
2017-06-13T01:01:40.379Z,17.19
2017-06-13T01:02:40.403Z,17.14
2017-06-13T01:05:40.479Z,17.22
2017-06-13T01:06:40.503Z,17.22
2017-06-13T01:07:40.222Z,17.15
2017-06-13T01:08:40.550Z,17.12
2017-06-13T01:09:40.576Z,17.18
2017-06-13T01:10:40.601Z,17.14
2017-06-13T01:11:40.624Z,17.11
2017-06-13T01:12:40.648Z,17.16
2017-06-13T01:13:40.725Z,17.19
2017-06-13T01:14:40.697Z,17.19
2017-06-13T01:15:40.723Z,17.18
2017-06-13T01:16:40.443Z,17.15
2017-06-13T01:17:40.770Z,17.14
2017-06-13T01:18:40.795Z,17.14
2017-06-13T01:20:40.845Z,17.14
2017-06-13T01:22:55.512Z,17.16
2017-06-13T01:23:40.922Z,17.18
2017-06-13T01:24:40.944Z,17.18
2017-06-13T01:25:55.584Z,17.01
2017-06-13T01:26:40.992Z,17.14
2017-06-13T01:27:41.017Z,17.15
2017-06-13T01:28:41.039Z,17.15
2017-06-13T01:29:41.066Z,17.12
2017-06-13T01:30:41.092Z,17.16
2017-06-13T01:31:41.115Z,17.12
2017-06-13T01:32:41.141Z,17.12
2017-06-13T01:33:41.163Z,17.03
2017-06-13T01:34:41.189Z,17.04
2017-06-13T01:35:41.210Z,17.08
2017-06-13T01:37:41.263Z,17.08
2017-06-13T01:38:41.284Z,17.04
2017-06-13T01:39:41.311Z,17.06
2017-06-13T01:40:41.338Z,17.07
2017-06-13T01:41:55.976Z,17.03
2017-06-13T01:42:41.384Z,17.01
2017-06-13T01:43:41.408Z,17.03
2017-06-13T01:44:41.437Z,17.03
2017-06-13T01:45:41.458Z,17.04
2017-06-13T01:46:41.179Z,16.93
2017-06-13T01:47:41.505Z,17.03
2017-06-13T01:48:41.536Z,16.96
2017-06-13T01:49:41.555Z,16.91
2017-06-13T01:50:41.579Z,16.97
2017-06-13T01:51:41.602Z,16.94
2017-06-13T01:52:41.632Z,16.91
2017-06-13T01:53:41.652Z,16.93
2017-06-13T01:54:41.675Z,16.96
2017-06-13T01:55:41.702Z,16.89
2017-06-13T01:56:41.727Z,16.93
2017-06-13T01:57:56.367Z,16.94
2017-06-13T01:58:41.774Z,16.97
2017-06-13T01:59:41.495Z,16.97
2017-06-13T02:00:41.825Z,16.89
2017-06-13T02:01:41.846Z,16.89
2017-06-13T02:02:41.873Z,16.88
2017-06-13T02:03:41.896Z,17
2017-06-13T02:04:41.922Z,17.07
2017-06-13T02:05:41.944Z,17.06
2017-06-13T02:06:41.970Z,17.07
2017-06-13T02:07:41.993Z,17.07
2017-06-13T02:10:41.768Z,17.07
2017-06-13T02:11:42.094Z,17.03
2017-06-13T02:12:42.116Z,17.03
2017-06-13T02:13:56.761Z,17.03
2017-06-13T02:14:42.168Z,17.08
2017-06-13T02:15:41.890Z,17.04
2017-06-13T02:16:42.213Z,17.03
2017-06-13T02:17:42.240Z,16.88
2017-06-13T02:18:41.959Z,17
2017-06-13T02:19:42.288Z,16.96
2017-06-13T02:20:42.314Z,17.07
2017-06-13T02:21:42.335Z,17.07
2017-06-13T02:23:42.388Z,16.93
2017-06-13T02:25:42.434Z,17.07
2017-06-13T02:26:57.077Z,17.12
2017-06-13T02:27:42.484Z,17.12
2017-06-13T02:28:57.127Z,17.01
2017-06-13T02:29:42.533Z,17.08
2017-06-13T02:30:42.559Z,17.06
2017-06-13T02:31:42.583Z,16.96
2017-06-13T02:32:42.605Z,16.94
2017-06-13T02:33:42.631Z,17.04
2017-06-13T02:34:42.656Z,17.03
2017-06-13T02:35:42.680Z,17.04
2017-06-13T02:36:42.704Z,17.06
2017-06-13T02:37:42.728Z,16.93
2017-06-13T02:39:42.777Z,16.98
2017-06-13T02:40:42.803Z,17.11
2017-06-13T02:41:42.826Z,17.06
2017-06-13T02:42:42.859Z,17
2017-06-13T02:43:42.876Z,16.91
2017-06-13T02:44:42.899Z,17.01
2017-06-13T02:45:42.924Z,16.91
2017-06-13T02:46:42.947Z,16.93
2017-06-13T02:47:42.976Z,16.97
2017-06-13T02:48:42.997Z,16.97
2017-06-13T02:49:43.020Z,16.93
2017-06-13T02:50:43.048Z,16.93
2017-06-13T02:51:43.075Z,17.07
2017-06-13T02:52:43.095Z,17.12
2017-06-13T02:53:43.119Z,17.06
2017-06-13T02:54:43.147Z,17.01
2017-06-13T02:55:42.865Z,16.97
2017-06-13T02:56:43.193Z,16.93
2017-06-13T02:57:57.835Z,17.01
2017-06-13T02:58:43.242Z,16.97
2017-06-13T02:59:57.882Z,16.91
2017-06-13T03:00:57.908Z,16.83
2017-06-13T03:01:43.317Z,16.83
2017-06-13T03:02:43.339Z,16.83
2017-06-13T03:03:43.368Z,16.78
2017-06-13T03:04:43.387Z,16.76
2017-06-13T03:05:43.420Z,16.82
2017-06-13T03:06:43.486Z,16.76
2017-06-13T03:07:43.462Z,16.78
2017-06-13T03:08:43.486Z,16.73
2017-06-13T03:09:43.514Z,16.63
2017-06-13T03:11:43.559Z,16.64
2017-06-13T03:12:43.583Z,16.78
2017-06-13T03:13:43.612Z,16.64
2017-06-13T03:14:43.632Z,16.67
2017-06-13T03:15:43.657Z,16.64
2017-06-13T03:16:57.996Z,16.56
2017-06-13T03:17:43.451Z,16.6
2017-06-13T03:18:43.425Z,16.57
2017-06-13T03:19:43.755Z,16.63
2017-06-13T03:20:43.479Z,16.58
2017-06-13T03:21:43.804Z,16.64
2017-06-13T03:22:43.830Z,16.53
2017-06-13T03:23:43.855Z,16.56
2017-06-13T03:24:43.877Z,16.6
2017-06-13T03:25:43.902Z,16.49
2017-06-13T03:26:43.924Z,16.48
2017-06-13T03:27:43.950Z,16.49
2017-06-13T03:28:43.977Z,16.49
2017-06-13T03:29:58.616Z,16.49
2017-06-13T03:30:44.023Z,16.6
2017-06-13T03:31:44.047Z,16.56
2017-06-13T03:32:58.689Z,16.52
2017-06-13T03:33:44.095Z,16.53
2017-06-13T03:34:44.121Z,16.5
2017-06-13T03:35:44.146Z,16.56
2017-06-13T03:36:43.865Z,16.52
2017-06-13T03:37:44.192Z,16.5
2017-06-13T03:38:44.218Z,16.46
2017-06-13T03:39:44.243Z,16.42
2017-06-13T03:40:44.267Z,16.45
2017-06-13T03:41:44.294Z,16.38
2017-06-13T03:43:44.346Z,16.38
2017-06-13T03:45:59.007Z,16.31
2017-06-13T03:46:44.416Z,16.33
2017-06-13T03:47:59.054Z,16.31
2017-06-13T03:48:59.080Z,16.45
2017-06-13T03:49:44.487Z,16.3
2017-06-13T03:50:44.516Z,16.33
2017-06-13T03:51:44.232Z,16.39
2017-06-13T03:52:44.563Z,16.43
2017-06-13T03:53:44.585Z,16.48
2017-06-13T03:54:44.609Z,16.49
2017-06-13T03:55:44.330Z,16.43
2017-06-13T03:57:44.683Z,16.56
2017-06-13T03:58:44.735Z,16.57
2017-06-13T04:00:59.375Z,16.64
2017-06-13T04:01:44.476Z,16.78
2017-06-13T04:02:44.806Z,16.83
2017-06-13T04:03:59.452Z,16.78
2017-06-13T04:04:44.890Z,16.78
2017-06-13T04:05:44.878Z,16.78
2017-06-13T04:06:44.903Z,16.81
2017-06-13T04:07:44.929Z,16.81
2017-06-13T04:08:44.952Z,16.81
2017-06-13T04:09:44.977Z,16.93
2017-06-13T04:10:45.002Z,17.3
2017-06-13T04:11:45.027Z,18.02
2017-06-13T04:12:45.051Z,18.76
2017-06-13T04:13:45.079Z,19.29
2017-06-13T04:14:45.103Z,19.77
2017-06-13T04:15:45.127Z,20.29
2017-06-13T04:16:45.156Z,20.69
2017-06-13T04:17:45.177Z,21.43
2017-06-13T04:18:45.205Z,21.83
2017-06-13T04:19:45.231Z,22.35
2017-06-13T04:20:45.259Z,22.64
2017-06-13T04:21:45.286Z,22.68
2017-06-13T04:22:45.311Z,22.98
2017-06-13T04:23:45.036Z,23.31
2017-06-13T04:24:45.065Z,23.53
2017-06-13T04:25:45.094Z,23.57
2017-06-13T04:26:45.424Z,23.69
2017-06-13T04:27:45.453Z,24.22
2017-06-13T04:31:45.570Z,24.49
2017-06-13T04:33:00.218Z,24.61
2017-06-13T04:33:45.630Z,24.5
2017-06-13T04:34:45.657Z,24.35
2017-06-13T04:36:00.310Z,24.5
2017-06-13T04:36:45.719Z,24.55
2017-06-13T04:37:45.751Z,24.43
2017-06-13T04:38:45.780Z,24.73
2017-06-13T04:39:45.816Z,24.98
2017-06-13T04:40:45.541Z,25.4
2017-06-13T04:41:45.878Z,25.45
2017-06-13T04:42:45.906Z,25.5
2017-06-13T04:46:46.035Z,26.07
2017-06-13T04:48:00.687Z,26.75
2017-06-13T04:49:00.719Z,26.65
2017-06-13T04:49:46.131Z,26.44
2017-06-13T04:50:46.162Z,26.51
2017-06-13T04:52:00.815Z,27.06
2017-06-13T04:52:46.229Z,27.55
2017-06-13T04:53:46.263Z,27.74
2017-06-13T04:54:46.295Z,27.94
2017-06-13T04:55:46.333Z,27.66
2017-06-13T04:56:46.360Z,27.78
2017-06-13T04:57:46.394Z,28.14
2017-06-13T04:58:46.428Z,28.15
2017-06-13T04:59:46.465Z,28.24
2017-06-13T05:00:46.496Z,27.07
2017-06-13T05:01:46.528Z,26.55
2017-06-13T05:02:46.565Z,26.55
2017-06-13T05:03:46.597Z,26.87
2017-06-13T05:04:46.025Z,27.55
2017-06-13T05:05:46.663Z,28
2017-06-13T05:06:46.700Z,28.04
2017-06-13T05:08:01.352Z,28
2017-06-13T05:08:46.765Z,27.63
2017-06-13T05:09:46.799Z,26.76
2017-06-13T05:10:46.835Z,26.06
2017-06-13T05:11:46.901Z,25.73
2017-06-13T05:12:46.904Z,25.69
2017-06-13T05:13:46.936Z,26.01
2017-06-13T05:14:46.970Z,26.33
2017-06-13T05:15:47.004Z,26.47
2017-06-13T05:16:47.040Z,26.6
2017-06-13T05:18:47.106Z,26.67
2017-06-13T05:20:01.760Z,25.82
2017-06-13T05:21:01.793Z,25.72
2017-06-13T05:21:47.206Z,25.3
2017-06-13T05:22:47.240Z,25.08
2017-06-13T05:24:01.892Z,24.55
2017-06-13T05:24:47.308Z,24.47
2017-06-13T05:25:47.341Z,23.72
2017-06-13T05:26:47.372Z,23.35
2017-06-13T05:27:47.405Z,23.05
2017-06-13T05:28:47.442Z,23.1
2017-06-13T05:29:47.167Z,23.19
2017-06-13T05:30:47.504Z,23.27
2017-06-13T05:31:47.534Z,23.9
2017-06-13T05:32:47.566Z,24.03
2017-06-13T05:33:47.598Z,24.43
2017-06-13T05:34:47.631Z,24.42
2017-06-13T05:35:47.663Z,24.6
2017-06-13T05:36:47.392Z,24.09
2017-06-13T05:37:47.725Z,24.22
2017-06-13T05:39:02.379Z,23.66
2017-06-13T05:39:47.793Z,23.7
2017-06-13T05:40:47.818Z,23.6
2017-06-13T05:41:47.853Z,23.68
2017-06-13T05:42:47.881Z,23.79
2017-06-13T05:43:47.913Z,23.54
2017-06-13T05:44:47.943Z,22.86
2017-06-13T05:45:47.973Z,22.6
2017-06-13T05:46:48.002Z,22.4
2017-06-13T05:47:48.033Z,22.57
2017-06-13T05:48:48.063Z,22.54
2017-06-13T05:50:48.125Z,21.62
2017-06-13T05:51:48.152Z,21.71
2017-06-13T05:52:48.183Z,21.53
2017-06-13T05:53:48.214Z,21.79
2017-06-13T05:54:48.241Z,21.58
2017-06-13T05:55:48.271Z,21.72
2017-06-13T05:56:48.298Z,21.38
2017-06-13T05:57:48.330Z,21.46
2017-06-13T05:58:48.357Z,21.42
2017-06-13T05:59:48.386Z,21.22
2017-06-13T06:00:48.416Z,21.14
2017-06-13T06:01:48.446Z,20.94
2017-06-13T06:02:48.482Z,21.09
2017-06-13T06:04:03.125Z,21.34
2017-06-13T06:05:48.561Z,21.25
2017-06-13T06:06:48.588Z,21.34
2017-06-13T06:07:48.619Z,21.52
2017-06-13T06:09:03.264Z,21.91
2017-06-13T06:09:48.673Z,22.72
2017-06-13T06:11:03.322Z,22.98
2017-06-13T06:11:48.731Z,23.78
2017-06-13T06:12:48.762Z,24.88
2017-06-13T06:13:48.789Z,25.52
2017-06-13T06:14:48.822Z,26.7
2017-06-13T06:15:48.851Z,27.1
2017-06-13T06:16:48.881Z,26.73
2017-06-13T06:17:48.910Z,26.01
2017-06-13T06:19:48.971Z,25.05
2017-06-13T06:20:49.004Z,25.24
2017-06-13T06:22:49.064Z,25.83
2017-06-13T06:23:48.794Z,25.09
2017-06-13T06:25:03.747Z,24.2
2017-06-13T06:25:49.158Z,24.02
2017-06-13T06:27:03.809Z,23.2
2017-06-13T06:27:48.916Z,23.13
2017-06-13T06:28:48.949Z,22.9
2017-06-13T06:29:49.300Z,23
2017-06-13T06:30:49.010Z,22.46
2017-06-13T06:31:49.342Z,21.98
2017-06-13T06:32:49.374Z,21.98
2017-06-13T06:33:49.452Z,21.72
2017-06-13T06:34:49.432Z,21.52
2017-06-13T06:35:49.461Z,21.58
2017-06-13T06:36:49.492Z,21.9
2017-06-13T06:37:49.523Z,22.07
2017-06-13T06:38:49.551Z,21.92
2017-06-13T06:39:49.579Z,21.99
2017-06-13T06:40:49.609Z,22.22
2017-06-13T06:41:49.639Z,22.57
2017-06-13T06:43:04.285Z,22.05
2017-06-13T06:43:49.391Z,21.96
2017-06-13T06:44:49.723Z,21.62
2017-06-13T06:45:49.753Z,22.02
2017-06-13T06:46:49.782Z,22.68
2017-06-13T06:47:49.810Z,22.57
2017-06-13T06:48:49.840Z,22.97
2017-06-13T06:49:49.869Z,23.27
2017-06-13T06:50:49.596Z,23.33
2017-06-13T06:51:49.928Z,23.19
2017-06-13T06:52:50.008Z,22.97
2017-06-13T06:54:04.608Z,22.35
2017-06-13T06:54:50.021Z,22.28
2017-06-13T06:56:04.665Z,22.06
2017-06-13T06:56:50.081Z,22.22
2017-06-13T06:57:50.103Z,22.02
2017-06-13T06:59:04.757Z,21.79
2017-06-13T06:59:49.860Z,21.71
2017-06-13T07:00:50.193Z,21.58
2017-06-13T07:01:50.221Z,21.34
2017-06-13T07:02:50.248Z,21.27
2017-06-13T07:03:50.277Z,21.34
2017-06-13T07:04:50.308Z,20.84
2017-06-13T07:05:50.334Z,21.09
2017-06-13T07:06:50.058Z,21.47
2017-06-13T07:07:50.464Z,21.46
2017-06-13T07:08:50.417Z,22.36
2017-06-13T07:09:50.461Z,23.05
2017-06-13T07:11:04.791Z,24.02
2017-06-13T07:11:50.525Z,24.24
2017-06-13T07:12:50.537Z,24.62
2017-06-13T07:14:05.182Z,24.3
2017-06-13T07:14:50.593Z,24.27
2017-06-13T07:15:50.622Z,23.73
2017-06-13T07:16:50.651Z,23.23
2017-06-13T07:17:50.694Z,23.35
2017-06-13T07:18:50.724Z,23.02
2017-06-13T07:19:50.740Z,23.04
2017-06-13T07:20:50.770Z,22.7
2017-06-13T07:21:50.803Z,22.31
2017-06-13T07:22:50.828Z,22.24
2017-06-13T07:23:50.859Z,22.06
2017-06-13T07:24:50.891Z,21.96
2017-06-13T07:25:50.613Z,22
2017-06-13T07:27:05.566Z,21.9
2017-06-13T07:27:50.978Z,21.75
2017-06-13T07:28:51.004Z,21.49
2017-06-13T07:29:51.037Z,21.38
2017-06-13T07:30:51.059Z,21.32
2017-06-13T07:31:51.089Z,21.28
2017-06-13T07:32:51.119Z,21.22
2017-06-13T07:33:51.196Z,21.17
2017-06-13T07:34:51.175Z,20.95
2017-06-13T07:35:51.203Z,20.77
2017-06-13T07:36:51.232Z,20.57
2017-06-13T07:37:51.257Z,20.66
2017-06-13T07:38:51.285Z,20.61
2017-06-13T07:39:51.313Z,20.42
2017-06-13T07:40:51.341Z,20.28
2017-06-13T07:41:51.366Z,20.48
2017-06-13T07:43:06.015Z,20.2
2017-06-13T07:43:51.473Z,20.24
2017-06-13T07:44:51.449Z,20.2
2017-06-13T07:46:06.097Z,20.41
2017-06-13T07:46:51.505Z,20.69
2017-06-13T07:47:51.537Z,20.66
2017-06-13T07:48:51.256Z,20.67
2017-06-13T07:49:51.586Z,21.09
2017-06-13T07:50:51.614Z,20.95
2017-06-13T07:51:51.643Z,21.21
2017-06-13T07:52:51.704Z,21.09
2017-06-13T07:53:51.694Z,20.95
2017-06-13T07:54:51.725Z,20.95
2017-06-13T07:55:51.749Z,20.91
2017-06-13T07:56:51.777Z,21.06
2017-06-13T07:58:06.423Z,21.03
2017-06-13T07:58:51.829Z,20.79
2017-06-13T07:59:51.860Z,20.82
2017-06-13T08:00:51.884Z,20.66
2017-06-13T08:02:06.531Z,20.77
2017-06-13T08:02:51.941Z,20.84
2017-06-13T08:03:51.661Z,20.8
2017-06-13T08:04:51.992Z,20.43
2017-06-13T08:05:52.019Z,20.36
2017-06-13T08:06:52.044Z,20.32
2017-06-13T08:07:52.073Z,20.52
2017-06-13T08:08:52.100Z,20.76
2017-06-13T08:10:52.153Z,21.56
2017-06-13T08:11:52.179Z,22.25
2017-06-13T08:12:52.209Z,22.73
2017-06-13T08:14:06.550Z,22.77
2017-06-13T08:14:51.959Z,22.97
2017-06-13T08:15:52.291Z,22.97
2017-06-13T08:16:52.317Z,22.36
2017-06-13T08:18:06.964Z,23.04
2017-06-13T08:18:52.370Z,23.61
2017-06-13T08:19:52.450Z,23.85
2017-06-13T08:20:52.428Z,23.6
2017-06-13T08:21:52.151Z,23.53
2017-06-13T08:22:52.182Z,23
2017-06-13T08:23:52.210Z,22.52
2017-06-13T08:25:52.569Z,21.86
2017-06-13T08:26:52.595Z,21.42
2017-06-13T08:28:52.654Z,21.32
2017-06-13T08:29:52.679Z,21.34
2017-06-13T08:30:52.712Z,21.34
2017-06-13T08:31:52.735Z,21.49
2017-06-13T08:33:07.380Z,21.29
2017-06-13T08:34:07.408Z,21.03
2017-06-13T08:34:52.532Z,20.97
2017-06-13T08:35:52.542Z,20.94
2017-06-13T08:36:52.921Z,20.91
2017-06-13T08:37:52.915Z,21.04
2017-06-13T08:38:52.938Z,20.94
2017-06-13T08:39:52.957Z,20.88
2017-06-13T08:40:52.981Z,20.92
2017-06-13T08:41:53.025Z,21.22
2017-06-13T08:42:53.039Z,21.28
2017-06-13T08:44:53.092Z,21.22
2017-06-13T08:45:53.419Z,21.13
2017-06-13T08:46:53.147Z,21.04
2017-06-13T08:47:52.870Z,20.98
2017-06-13T08:49:07.817Z,20.85
2017-06-13T08:49:53.228Z,20.95
2017-06-13T08:50:53.254Z,20.88
2017-06-13T08:51:53.280Z,20.67
2017-06-13T08:52:53.307Z,20.67
2017-06-13T08:53:53.333Z,20.77
2017-06-13T08:54:53.360Z,20.72
2017-06-13T08:55:53.386Z,20.69
2017-06-13T08:56:53.417Z,20.62
2017-06-13T08:57:53.439Z,20.61
2017-06-13T08:58:53.469Z,20.41
2017-06-13T08:59:53.496Z,20.43
2017-06-13T09:00:53.521Z,20.39
2017-06-13T09:01:53.545Z,20.55
2017-06-13T09:02:53.574Z,20.57
2017-06-13T09:03:53.601Z,20.41
2017-06-13T09:04:53.628Z,20.31
2017-06-13T09:05:53.654Z,20.28
2017-06-13T09:06:53.682Z,20.21
2017-06-13T09:07:53.710Z,20.28
2017-06-13T09:08:53.733Z,20.17
2017-06-13T09:09:53.459Z,20.17
2017-06-13T09:10:53.787Z,20.13
2017-06-13T09:11:53.814Z,20.21
2017-06-13T09:12:53.534Z,20.08
2017-06-13T09:13:53.865Z,20.21
2017-06-13T09:14:53.894Z,20.21
2017-06-13T09:15:53.921Z,20.24
2017-06-13T09:17:08.563Z,20.36
2017-06-13T09:17:53.970Z,20.47
2017-06-13T09:18:53.996Z,20.59
2017-06-13T09:19:54.027Z,20.8
2017-06-13T09:21:08.669Z,21.07
2017-06-13T09:21:54.075Z,21.28
2017-06-13T09:22:53.801Z,21.4
2017-06-13T09:23:54.132Z,21.52
2017-06-13T09:24:54.155Z,21.61
2017-06-13T09:25:54.182Z,21.65
2017-06-13T09:26:54.508Z,21.67
2017-06-13T09:27:54.234Z,21.88
2017-06-13T09:28:54.261Z,22.02
2017-06-13T09:30:54.313Z,22.07
2017-06-13T09:33:08.987Z,22.1
2017-06-13T09:34:09.013Z,22.27
2017-06-13T09:35:09.039Z,22.33
2017-06-13T09:35:54.448Z,22.46
2017-06-13T09:37:09.092Z,22.36
2017-06-13T09:37:54.503Z,22.42
2017-06-13T09:38:54.530Z,22.36
2017-06-13T09:39:54.558Z,22.47
2017-06-13T09:40:54.583Z,22.35
2017-06-13T09:41:54.612Z,21.69
2017-06-13T09:42:54.637Z,21.37
2017-06-13T09:43:54.664Z,21.44
2017-06-13T09:44:54.693Z,21.4
2017-06-13T09:45:54.716Z,21.27
2017-06-13T09:46:54.743Z,21.14
2017-06-13T09:47:54.771Z,21.19
2017-06-13T09:49:09.417Z,21.14
2017-06-13T09:50:09.442Z,21.34
2017-06-13T09:50:54.849Z,21.34
2017-06-13T09:51:54.880Z,21.28
2017-06-13T09:53:09.521Z,21.31
2017-06-13T09:53:54.931Z,21.29
2017-06-13T09:54:54.961Z,21.13
2017-06-13T09:55:54.983Z,21.04
2017-06-13T09:56:55.011Z,21.06
2017-06-13T09:57:55.039Z,21.19
2017-06-13T09:58:55.066Z,21.14
2017-06-13T09:59:55.092Z,21.21
2017-06-13T10:01:09.533Z,21.03
2017-06-13T10:02:55.171Z,20.98
2017-06-13T10:03:54.894Z,20.79
2017-06-13T10:05:54.948Z,20.61
2017-06-13T10:06:55.279Z,20.38
2017-06-13T10:07:55.000Z,20.29
2017-06-13T10:09:09.951Z,20.17
2017-06-13T10:09:55.356Z,20.13
2017-06-13T10:10:55.382Z,20.26
2017-06-13T10:11:55.108Z,20.23
2017-06-13T10:12:55.434Z,20.11
2017-06-13T10:13:55.461Z,20.2
2017-06-13T10:14:55.488Z,20.23
2017-06-13T10:15:55.513Z,20.38
2017-06-13T10:16:55.541Z,20.61
2017-06-13T10:17:55.566Z,20.91
2017-06-13T10:18:55.593Z,20.95
2017-06-13T10:19:55.621Z,20.92
2017-06-13T10:20:55.646Z,20.89
2017-06-13T10:22:10.291Z,20.89
2017-06-13T10:22:55.700Z,20.76
2017-06-13T10:24:10.344Z,20.62
2017-06-13T10:24:55.754Z,20.52
2017-06-13T10:25:55.780Z,20.35
2017-06-13T10:26:55.805Z,20.24
2017-06-13T10:28:55.856Z,20.11
2017-06-13T10:29:55.580Z,19.98
2017-06-13T10:32:55.961Z,19.87
2017-06-13T10:36:10.661Z,20.61
2017-06-13T10:37:10.686Z,20.85
2017-06-13T10:37:56.093Z,21.27
2017-06-13T10:38:56.118Z,21.34
2017-06-13T10:39:56.149Z,21.72
2017-06-13T10:40:56.171Z,22.03
2017-06-13T10:41:56.197Z,22.25
2017-06-13T10:42:56.275Z,22.22
2017-06-13T10:43:55.950Z,22.12
2017-06-13T10:44:56.277Z,21.99
2017-06-13T10:45:56.305Z,21.8
2017-06-13T10:46:56.331Z,21.75
2017-06-13T10:47:56.354Z,22.06
2017-06-13T10:48:56.383Z,22.09
2017-06-13T10:49:56.410Z,22.09
2017-06-13T10:50:56.439Z,22.27
2017-06-13T10:53:11.108Z,22.42
2017-06-13T10:53:56.519Z,22.4
2017-06-13T10:54:56.242Z,22.42
2017-06-13T10:56:11.192Z,22.22
2017-06-13T10:56:56.596Z,22.07
2017-06-13T10:57:56.627Z,22.03
2017-06-13T10:58:56.653Z,21.77
2017-06-13T10:59:56.680Z,21.37
2017-06-13T11:00:56.705Z,21.47
2017-06-13T11:01:56.732Z,21.37
2017-06-13T11:02:56.758Z,21.62
2017-06-13T11:05:56.847Z,21.86
2017-06-13T11:07:56.894Z,21.59
2017-06-13T11:09:11.537Z,21.61
2017-06-13T11:09:56.946Z,21.61
2017-06-13T11:10:56.975Z,21.59
2017-06-13T11:12:11.618Z,21.64
2017-06-13T11:12:57.027Z,21.58
2017-06-13T11:13:56.750Z,21.42
2017-06-13T11:14:57.080Z,21.27
2017-06-13T11:15:57.106Z,21.13
2017-06-13T11:16:57.133Z,21.24
2017-06-13T11:17:57.158Z,21.22
2017-06-13T11:18:57.188Z,20.94
2017-06-13T11:19:57.212Z,20.69
2017-06-13T11:21:57.265Z,20.48
2017-06-13T11:22:57.292Z,20.58
2017-06-13T11:23:57.322Z,20.62
2017-06-13T11:25:57.370Z,20.62
2017-06-13T11:26:57.400Z,20.8
2017-06-13T11:28:12.043Z,20.95
2017-06-13T11:28:57.452Z,21.07
2017-06-13T11:29:57.479Z,21.17
2017-06-13T11:30:57.505Z,21.22
2017-06-13T11:31:57.231Z,21.31
2017-06-13T11:32:57.559Z,21.24
2017-06-13T11:33:57.598Z,21.19
2017-06-13T11:34:57.610Z,20.88
2017-06-13T11:35:57.636Z,20.95
2017-06-13T11:36:57.661Z,20.84
2017-06-13T11:37:57.689Z,20.89
2017-06-13T11:38:57.411Z,20.98
2017-06-13T11:39:57.744Z,20.97
2017-06-13T11:40:57.767Z,21.12
2017-06-13T11:42:12.411Z,21.19
2017-06-13T11:42:57.822Z,21.24
2017-06-13T11:44:12.463Z,21.17
2017-06-13T11:44:57.872Z,21.16
2017-06-13T11:45:57.903Z,21.14
2017-06-13T11:46:58.135Z,21.07
2017-06-13T11:47:57.951Z,20.97
2017-06-13T11:48:57.672Z,21.12
2017-06-13T11:49:58.002Z,21.22
2017-06-13T11:50:58.031Z,21.35
2017-06-13T11:51:58.056Z,21.37
2017-06-13T11:52:58.083Z,21.22
2017-06-13T11:53:58.110Z,21.04
2017-06-13T11:54:58.147Z,21.03
2017-06-13T11:55:58.164Z,21.09
2017-06-13T11:57:12.806Z,20.89
2017-06-13T11:57:58.214Z,20.79
2017-06-13T11:59:12.861Z,20.72
2017-06-13T11:59:58.269Z,20.55
2017-06-13T12:00:57.995Z,20.5
2017-06-13T12:01:58.321Z,20.66
2017-06-13T12:02:58.650Z,20.59
2017-06-13T12:03:58.372Z,20.61
2017-06-13T12:04:58.408Z,20.24
2017-06-13T12:05:58.123Z,20.21
2017-06-13T12:06:58.147Z,20.33
2017-06-13T12:07:58.478Z,20.35
2017-06-13T12:08:58.502Z,20.38
2017-06-13T12:09:58.529Z,20.36
2017-06-13T12:10:58.558Z,20.38
2017-06-13T12:11:58.582Z,20.42
2017-06-13T12:12:58.607Z,20.38
2017-06-13T12:13:58.636Z,20.29
2017-06-13T12:14:58.667Z,20.26
2017-06-13T12:15:58.686Z,20.33
2017-06-13T12:16:58.748Z,20.16
2017-06-13T12:17:58.739Z,20.2
2017-06-13T12:18:58.764Z,20.13
2017-06-13T12:19:58.789Z,20.08
2017-06-13T12:20:58.512Z,20.14
2017-06-13T12:21:58.891Z,20.01
2017-06-13T12:22:58.869Z,20.05
2017-06-13T12:23:58.893Z,20.16
2017-06-13T12:24:58.919Z,20.13
2017-06-13T12:25:58.985Z,20.06
2017-06-13T12:26:58.991Z,19.99
2017-06-13T12:28:13.615Z,20.11
2017-06-13T12:28:59.025Z,20.11
2017-06-13T12:30:13.665Z,20.11
2017-06-13T12:31:13.693Z,20.14
2017-06-13T12:31:59.103Z,20.06
2017-06-13T12:32:59.129Z,20.02
2017-06-13T12:33:59.153Z,19.96
2017-06-13T12:34:59.179Z,20.08
2017-06-13T12:35:59.206Z,20.02
2017-06-13T12:36:59.232Z,20.13
2017-06-13T12:37:59.255Z,20.2
2017-06-13T12:38:59.283Z,20.17
2017-06-13T12:39:59.310Z,20.11
2017-06-13T12:41:59.358Z,20.38
2017-06-13T12:43:14.004Z,20.99
2017-06-13T12:45:14.055Z,21.4
2017-06-13T12:45:59.465Z,21.59
2017-06-13T12:47:14.110Z,22.02
2017-06-13T12:47:59.815Z,22.07
2017-06-13T12:48:59.542Z,22.18
2017-06-13T12:49:59.566Z,22.55
2017-06-13T12:50:59.595Z,22.79
2017-06-13T12:51:59.621Z,22.97
2017-06-13T12:52:59.645Z,23.31
2017-06-13T12:53:59.674Z,23.43
2017-06-13T12:55:59.729Z,23.54
2017-06-13T12:56:59.752Z,23.32
2017-06-13T12:57:59.476Z,23.46
2017-06-13T12:59:14.123Z,23.46
2017-06-13T13:00:14.451Z,23.72
2017-06-13T13:00:59.909Z,23.83
2017-06-13T13:01:59.888Z,23.84
2017-06-13T13:03:14.532Z,24.13
2017-06-13T13:03:59.940Z,24.13
2017-06-13T13:04:59.974Z,24.43
2017-06-13T13:05:59.998Z,24.6
2017-06-13T13:06:59.719Z,24.58
2017-06-13T13:08:00.053Z,24.68
2017-06-13T13:09:00.078Z,24.95
2017-06-13T13:10:00.106Z,24.6
2017-06-13T13:10:59.830Z,24.47
2017-06-13T13:12:00.160Z,23.85
2017-06-13T13:14:00.220Z,23.35
2017-06-13T13:16:14.890Z,23.35
2017-06-13T13:17:00.299Z,23.42
2017-06-13T13:18:14.944Z,22.9
2017-06-13T13:19:14.972Z,22.7
2017-06-13T13:20:00.380Z,22.8
2017-06-13T13:21:00.408Z,22.98
2017-06-13T13:22:00.438Z,22.95
2017-06-13T13:23:00.463Z,23.02
2017-06-13T13:24:00.490Z,23.15
2017-06-13T13:25:00.524Z,23.04
2017-06-13T13:26:00.544Z,23
2017-06-13T13:27:00.574Z,22.92
2017-06-13T13:28:00.599Z,22.91
2017-06-13T13:29:00.627Z,22.94
2017-06-13T13:30:00.653Z,22.82
2017-06-13T13:31:00.682Z,22.68
2017-06-13T13:32:00.710Z,22.72
2017-06-13T13:33:00.739Z,23.02
2017-06-13T13:34:15.386Z,23.19
2017-06-13T13:35:00.791Z,23.17
2017-06-13T13:36:00.819Z,23.55
2017-06-13T13:37:00.851Z,23.57
2017-06-13T13:38:00.874Z,23.54
2017-06-13T13:39:00.902Z,23.6
2017-06-13T13:40:00.929Z,23.33
2017-06-13T13:41:00.956Z,23.43
2017-06-13T13:42:00.983Z,23.48
2017-06-13T13:44:01.039Z,23.47
2017-06-13T13:45:01.067Z,23.55
2017-06-13T13:46:01.096Z,23.47
2017-06-13T13:48:01.149Z,23.47
2017-06-13T13:49:01.175Z,23.48
2017-06-13T13:50:01.203Z,23.35
2017-06-13T13:51:01.235Z,23.53
2017-06-13T13:52:01.256Z,23.54
2017-06-13T13:53:01.292Z,23.75